createdAt,value
2022-11-05T00:00:20.306Z,7.61
2022-11-05T00:01:41.770Z,7.62
2022-11-05T00:03:03.053Z,7.61
2022-11-05T00:04:11.132Z,7.61
2022-11-05T00:05:32.617Z,7.62
2022-11-05T00:06:53.664Z,7.62
2022-11-05T00:08:15.941Z,7.62
2022-11-05T00:09:32.218Z,7.61
2022-11-05T00:10:37.614Z,7.60
2022-11-05T00:11:58.848Z,7.59
2022-11-05T00:13:20.368Z,7.59
2022-11-05T00:14:41.626Z,7.58
2022-11-05T00:16:03.491Z,7.58
2022-11-05T00:17:06.328Z,7.57
2022-11-05T00:18:09.152Z,7.59
2022-11-05T00:19:12.900Z,7.58
2022-11-05T00:20:17.564Z,7.59
2022-11-05T00:21:38.682Z,7.61
2022-11-05T00:23:00.026Z,7.62
2022-11-05T00:24:24.272Z,7.62
2022-11-05T00:25:31.362Z,7.62
2022-11-05T00:26:34.243Z,7.64
2022-11-05T00:27:37.425Z,7.65
2022-11-05T00:28:43.190Z,7.66
2022-11-05T00:29:46.193Z,7.68
2022-11-05T00:30:49.270Z,7.70
2022-11-05T00:31:52.647Z,7.71
2022-11-05T00:32:59.084Z,7.72
2022-11-05T00:34:02.367Z,7.73
2022-11-05T00:35:07.543Z,7.73
2022-11-05T00:36:11.389Z,7.74
2022-11-05T00:37:15.222Z,7.75
2022-11-05T00:38:18.459Z,7.76
2022-11-05T00:39:21.310Z,7.76
2022-11-05T00:40:24.147Z,7.77
2022-11-05T00:41:27.309Z,7.76
2022-11-05T00:42:48.517Z,7.75
2022-11-05T00:44:10.965Z,7.76
2022-11-05T00:45:13.849Z,7.75
2022-11-05T00:46:17.233Z,7.73
2022-11-05T00:47:38.799Z,7.73
2022-11-05T00:49:00.221Z,7.71
2022-11-05T00:50:03.468Z,7.70
2022-11-05T00:51:06.995Z,7.68
2022-11-05T00:52:28.087Z,7.66
2022-11-05T00:53:30.937Z,7.65
2022-11-05T00:54:33.807Z,7.64
2022-11-05T00:55:39.528Z,7.61
2022-11-05T00:56:42.383Z,7.60
2022-11-05T00:57:45.217Z,7.57
2022-11-05T00:58:48.480Z,7.55
2022-11-05T00:59:51.392Z,7.55
2022-11-05T01:00:57.883Z,7.52
2022-11-05T01:02:00.941Z,7.51
2022-11-05T01:03:15.804Z,7.51
2022-11-05T01:04:20.080Z,7.50
2022-11-05T01:05:22.931Z,7.49
2022-11-05T01:06:25.743Z,7.49
2022-11-05T01:07:28.622Z,7.49
2022-11-05T01:08:31.464Z,7.49
2022-11-05T01:09:34.513Z,7.49
2022-11-05T01:10:43.373Z,7.49
2022-11-05T01:11:46.403Z,7.49
2022-11-05T01:12:49.322Z,7.50
2022-11-05T01:13:52.403Z,7.51
2022-11-05T01:14:55.326Z,7.51
2022-11-05T01:16:01.791Z,7.51
2022-11-05T01:17:04.885Z,7.51
2022-11-05T01:18:08.103Z,7.51
2022-11-05T01:19:11.934Z,7.52
2022-11-05T01:20:15.909Z,7.52
2022-11-05T01:21:18.861Z,7.53
2022-11-05T01:22:21.684Z,7.54
2022-11-05T01:23:24.592Z,7.55
2022-11-05T01:24:27.526Z,7.57
2022-11-05T01:25:30.439Z,7.59
2022-11-05T01:26:33.458Z,7.60
2022-11-05T01:27:37.581Z,7.61
2022-11-05T01:28:40.519Z,7.62
2022-11-05T01:29:43.659Z,7.64
2022-11-05T01:30:48.268Z,7.64
2022-11-05T01:31:51.444Z,7.64
2022-11-05T01:32:54.437Z,7.63
2022-11-05T01:33:59.029Z,7.64
2022-11-05T01:35:03.178Z,7.65
2022-11-05T01:36:06.542Z,7.66
2022-11-05T01:37:09.475Z,7.65
2022-11-05T01:38:12.294Z,7.66
2022-11-05T01:39:15.385Z,7.67
2022-11-05T01:40:21.847Z,7.66
2022-11-05T01:41:24.700Z,7.66
2022-11-05T01:42:30.197Z,7.66
2022-11-05T01:43:54.696Z,7.65
2022-11-05T01:45:01.101Z,7.66
2022-11-05T01:46:03.975Z,7.65
2022-11-05T01:47:09.673Z,7.65
2022-11-05T01:48:16.124Z,7.64
2022-11-05T01:49:28.504Z,7.64
2022-11-05T01:50:35.090Z,7.64
2022-11-05T01:51:39.442Z,7.63
2022-11-05T01:52:42.315Z,7.63
2022-11-05T01:54:00.742Z,7.63
2022-11-05T01:55:05.080Z,7.63
2022-11-05T01:56:11.673Z,7.63
2022-11-05T01:57:15.216Z,7.64
2022-11-05T01:58:21.318Z,7.65
2022-11-05T01:59:30.391Z,7.65
2022-11-05T02:00:35.784Z,7.67
2022-11-05T02:01:39.121Z,7.68
2022-11-05T02:02:43.673Z,7.69
2022-11-05T02:03:49.525Z,7.71
2022-11-05T02:04:56.332Z,7.72
2022-11-05T02:06:02.090Z,7.73
2022-11-05T02:07:07.108Z,7.74
2022-11-05T02:08:14.134Z,7.74
2022-11-05T02:09:20.539Z,7.75
2022-11-05T02:10:23.708Z,7.75
2022-11-05T02:11:26.565Z,7.75
2022-11-05T02:12:30.412Z,7.75
2022-11-05T02:13:33.366Z,7.76
2022-11-05T02:14:37.195Z,7.74
2022-11-05T02:15:52.437Z,7.76
2022-11-05T02:17:22.079Z,7.76
2022-11-05T02:18:40.747Z,7.76
2022-11-05T02:20:02.433Z,7.75
2022-11-05T02:21:34.378Z,7.74
2022-11-05T02:23:11.546Z,7.73
2022-11-05T02:24:39.499Z,7.72
2022-11-05T02:26:01.276Z,7.71
2022-11-05T02:27:19.464Z,7.69
2022-11-05T02:28:34.859Z,7.68
2022-11-05T02:30:07.201Z,7.66
2022-11-05T02:31:19.640Z,7.64
2022-11-05T02:33:56.270Z,7.74
2022-11-05T02:35:27.045Z,7.63
2022-11-05T02:36:39.475Z,7.62
2022-11-05T02:37:54.806Z,7.61
2022-11-05T02:39:17.881Z,7.59
2022-11-05T02:40:42.348Z,7.58
2022-11-05T02:42:03.515Z,7.56
2022-11-05T02:43:15.924Z,7.53
2022-11-05T02:44:25.157Z,7.51
2022-11-05T02:45:34.768Z,7.49
2022-11-05T02:46:46.972Z,7.48
2022-11-05T02:48:05.847Z,7.46
2022-11-05T02:49:28.547Z,7.46
2022-11-05T02:50:43.821Z,7.44
2022-11-05T02:51:58.086Z,7.44
2022-11-05T02:53:13.703Z,7.45
2022-11-05T02:54:35.625Z,7.44
2022-11-05T02:55:42.101Z,7.45
2022-11-05T02:56:47.948Z,7.46
2022-11-05T02:57:50.802Z,7.45
2022-11-05T02:58:53.654Z,7.47
2022-11-05T03:00:06.101Z,7.48
2022-11-05T03:01:11.914Z,7.49
2022-11-05T03:02:14.947Z,7.50
2022-11-05T03:03:21.575Z,7.51
2022-11-05T03:04:25.825Z,7.53
2022-11-05T03:05:32.248Z,7.54
2022-11-05T03:07:10.352Z,7.55
2022-11-05T03:08:16.745Z,7.57
2022-11-05T03:09:32.536Z,7.59
2022-11-05T03:10:42.248Z,7.59
2022-11-05T03:12:03.206Z,7.61
2022-11-05T03:13:24.585Z,7.63
2022-11-05T03:14:53.582Z,7.64
2022-11-05T03:16:00.144Z,7.66
2022-11-05T03:17:13.183Z,7.65
2022-11-05T03:18:26.001Z,7.66
2022-11-05T03:19:32.516Z,7.66
2022-11-05T03:20:39.119Z,7.68
2022-11-05T03:21:55.817Z,7.69
2022-11-05T03:23:26.493Z,7.70
2022-11-05T03:24:35.362Z,7.73
2022-11-05T03:25:47.881Z,7.74
2022-11-05T03:26:57.886Z,7.74
2022-11-05T03:28:04.279Z,7.76
2022-11-05T03:29:10.669Z,7.75
2022-11-05T03:30:18.239Z,7.76
2022-11-05T03:31:24.809Z,7.78
2022-11-05T03:32:31.364Z,7.79
2022-11-05T03:33:38.357Z,7.81
2022-11-05T03:34:54.012Z,7.84
2022-11-05T03:36:00.531Z,7.86
2022-11-05T03:37:05.887Z,7.88
2022-11-05T03:38:24.297Z,7.89
2022-11-05T03:39:31.000Z,7.90
2022-11-05T03:40:37.153Z,7.90
2022-11-05T03:41:43.163Z,7.92
2022-11-05T03:42:49.853Z,7.92
2022-11-05T03:43:56.881Z,7.92
2022-11-05T03:45:03.603Z,7.93
2022-11-05T03:46:22.178Z,7.95
2022-11-05T03:47:32.217Z,7.95
2022-11-05T03:48:38.701Z,7.95
2022-11-05T03:49:45.184Z,7.96
2022-11-05T03:51:00.732Z,7.95
2022-11-05T03:52:09.845Z,7.98
2022-11-05T03:53:16.287Z,7.98
2022-11-05T03:54:19.057Z,7.99
2022-11-05T03:55:25.438Z,8.01
2022-11-05T03:56:34.622Z,8.01
2022-11-05T03:57:41.000Z,8.03
2022-11-05T03:58:45.281Z,8.03
2022-11-05T03:59:50.124Z,8.03
2022-11-05T04:00:53.085Z,8.04
2022-11-05T04:01:56.732Z,8.03
2022-11-05T04:02:59.992Z,8.04
2022-11-05T04:04:04.902Z,8.04
2022-11-05T04:05:08.152Z,8.03
2022-11-05T04:06:30.496Z,8.04
2022-11-05T04:07:51.877Z,8.05
2022-11-05T04:09:13.317Z,8.04
2022-11-05T04:10:35.298Z,8.04
2022-11-05T04:11:56.665Z,8.03
2022-11-05T04:13:18.185Z,8.02
2022-11-05T04:14:21.687Z,8.02
2022-11-05T04:15:25.059Z,8.03
2022-11-05T04:16:46.455Z,8.02
2022-11-05T04:17:49.377Z,8.01
2022-11-05T04:18:52.508Z,8.02
2022-11-05T04:20:14.374Z,8.01
2022-11-05T04:21:35.895Z,8.01
2022-11-05T04:22:57.341Z,8.00
2022-11-05T04:24:09.495Z,8.01
2022-11-05T04:25:13.628Z,8.00
2022-11-05T04:26:16.454Z,7.99
2022-11-05T04:27:19.270Z,7.99
2022-11-05T04:28:23.969Z,7.99
2022-11-05T04:29:37.984Z,8.00
2022-11-05T04:30:41.268Z,8.00
2022-11-05T04:31:44.312Z,8.01
2022-11-05T04:33:07.705Z,8.01
2022-11-05T04:34:10.827Z,8.02
2022-11-05T04:35:13.959Z,8.02
2022-11-05T04:36:19.073Z,8.02
2022-11-05T04:37:22.124Z,8.02
2022-11-05T04:38:24.936Z,8.03
2022-11-05T04:39:27.748Z,8.04
2022-11-05T04:40:30.704Z,8.04
2022-11-05T04:41:33.640Z,8.04
2022-11-05T04:42:36.593Z,8.06
2022-11-05T04:43:39.560Z,8.07
2022-11-05T04:44:42.414Z,8.08
2022-11-05T04:45:45.536Z,8.08
2022-11-05T04:46:48.469Z,8.10
2022-11-05T04:47:51.550Z,8.11
2022-11-05T04:48:54.454Z,8.12
2022-11-05T04:49:57.401Z,8.13
2022-11-05T04:51:00.289Z,8.13
2022-11-05T04:52:03.265Z,8.14
2022-11-05T04:53:06.209Z,8.14
2022-11-05T04:54:09.188Z,8.16
2022-11-05T04:55:12.340Z,8.16
2022-11-05T04:56:21.766Z,8.17
2022-11-05T04:57:24.724Z,8.18
2022-11-05T04:58:27.787Z,8.18
2022-11-05T04:59:30.723Z,8.20
2022-11-05T05:00:33.578Z,8.21
2022-11-05T05:01:36.748Z,8.21
2022-11-05T05:02:39.795Z,8.21
2022-11-05T05:03:43.205Z,8.20
2022-11-05T05:04:46.030Z,8.19
2022-11-05T05:05:50.260Z,8.19
2022-11-05T05:06:53.832Z,8.18
2022-11-05T05:08:04.281Z,8.18
2022-11-05T05:09:07.672Z,8.18
2022-11-05T05:10:11.377Z,8.19
2022-11-05T05:11:16.657Z,8.18
2022-11-05T05:12:19.819Z,8.20
2022-11-05T05:13:22.759Z,8.21
2022-11-05T05:14:25.789Z,8.22
2022-11-05T05:15:28.863Z,8.22
2022-11-05T05:16:32.174Z,8.22
2022-11-05T09:10:01.910Z,6.65
2022-11-05T09:11:05.575Z,6.66
2022-11-05T09:12:12.988Z,6.73
2022-11-05T09:13:18.769Z,6.80
2022-11-05T09:14:18.246Z,6.85
2022-11-05T09:15:22.641Z,6.91
2022-11-05T09:16:26.210Z,6.95
2022-11-05T09:17:29.354Z,7.02
2022-11-05T09:18:33.329Z,7.07
2022-11-05T09:19:39.789Z,7.11
2022-11-05T09:20:41.653Z,7.16
2022-11-05T09:21:44.812Z,7.21
2022-11-05T09:22:47.756Z,7.25
2022-11-05T09:23:50.683Z,7.31
2022-11-05T09:24:53.647Z,7.36
2022-11-05T09:25:56.608Z,7.39
2022-11-05T09:26:59.547Z,7.41
2022-11-05T09:29:27.975Z,7.57
2022-11-05T09:30:31.221Z,7.48
2022-11-05T09:31:34.124Z,7.51
2022-11-05T09:32:37.237Z,7.55
2022-11-05T09:33:40.870Z,7.60
2022-11-05T09:34:44.423Z,7.65
2022-11-05T09:35:47.263Z,7.70
2022-11-05T09:36:50.116Z,7.73
2022-11-05T09:37:58.202Z,7.76
2022-11-05T09:38:57.985Z,7.79
2022-11-05T09:40:01.120Z,7.82
2022-11-05T09:41:08.281Z,7.84
2022-11-05T09:42:14.779Z,7.88
2022-11-05T09:43:20.288Z,7.92
2022-11-05T09:44:29.762Z,7.94
2022-11-05T09:45:35.547Z,7.98
2022-11-05T09:46:50.997Z,8.00
2022-11-05T09:47:57.649Z,8.02
2022-11-05T09:49:06.847Z,8.04
2022-11-05T09:50:16.547Z,8.05
2022-11-05T09:51:23.895Z,8.07
2022-11-05T09:52:30.340Z,8.10
2022-11-05T09:53:36.380Z,8.09
2022-11-05T09:54:39.754Z,8.07
2022-11-05T09:55:45.770Z,8.05
2022-11-05T09:56:48.750Z,8.02
2022-11-05T09:58:00.902Z,8.01
2022-11-05T09:59:13.296Z,8.01
2022-11-05T10:00:17.075Z,8.01
2022-11-05T10:02:38.861Z,8.07
2022-11-05T10:03:45.434Z,7.92
2022-11-05T10:04:52.349Z,7.87
2022-11-05T10:05:58.910Z,7.82
2022-11-05T10:07:05.309Z,7.77
2022-11-05T10:08:23.224Z,7.74
2022-11-05T10:09:39.636Z,7.71
2022-11-05T10:10:49.043Z,7.72
2022-11-05T10:11:55.547Z,7.72
2022-11-05T10:13:07.714Z,7.74
2022-11-05T10:14:14.301Z,7.76
2022-11-05T10:15:23.713Z,7.78
2022-11-05T10:16:32.931Z,7.80
2022-11-05T10:17:39.280Z,7.84
2022-11-05T10:18:46.087Z,7.86
2022-11-05T10:19:55.967Z,7.88
2022-11-05T10:20:59.001Z,7.91
2022-11-05T10:22:10.737Z,7.94
2022-11-05T10:23:16.877Z,7.96
2022-11-05T10:24:21.012Z,8.00
2022-11-05T10:25:27.512Z,8.02
2022-11-05T10:26:30.476Z,8.04
2022-11-05T10:27:36.382Z,8.05
2022-11-05T10:28:39.438Z,8.07
2022-11-05T10:29:43.028Z,8.08
2022-11-05T10:30:48.785Z,8.09
2022-11-05T10:31:53.953Z,8.08
2022-11-05T10:33:00.197Z,8.04
2022-11-05T10:34:06.231Z,8.02
2022-11-05T10:35:12.687Z,7.98
2022-11-05T10:36:32.344Z,7.93
2022-11-05T10:37:40.629Z,7.91
2022-11-05T10:38:41.514Z,7.87
2022-11-05T10:39:44.356Z,7.86
2022-11-05T10:40:50.844Z,7.84
2022-11-05T10:42:18.241Z,7.85
2022-11-05T10:43:44.710Z,7.87
2022-11-05T10:44:54.334Z,7.88
2022-11-05T10:50:58.803Z,7.89
2022-11-05T10:52:05.251Z,7.85
2022-11-05T10:53:32.581Z,7.83
2022-11-05T10:54:36.004Z,7.83
2022-11-05T10:55:42.107Z,7.84
2022-11-05T10:56:45.594Z,7.84
2022-11-05T10:57:50.348Z,7.83
2022-11-05T10:58:56.296Z,7.81
2022-11-05T11:00:18.037Z,7.80
2022-11-05T11:01:22.862Z,7.79
2022-11-05T11:02:28.646Z,7.79
2022-11-05T11:03:46.541Z,7.77
2022-11-05T11:04:55.694Z,7.77
2022-11-05T11:06:03.946Z,7.75
2022-11-05T11:07:19.711Z,7.72
2022-11-05T11:08:25.562Z,7.70
2022-11-05T11:09:34.554Z,7.69
2022-11-05T11:10:43.976Z,7.66
2022-11-05T11:11:51.532Z,7.64
2022-11-05T11:12:56.711Z,7.62
2022-11-05T11:14:15.415Z,7.61
2022-11-05T11:15:25.566Z,7.60
2022-11-05T11:16:32.130Z,7.55
2022-11-05T11:17:35.030Z,7.53
2022-11-05T11:18:41.122Z,7.53
2022-11-05T11:19:44.677Z,7.51
2022-11-05T11:20:47.647Z,7.51
2022-11-05T11:22:06.252Z,7.49
2022-11-05T11:23:15.115Z,7.45
2022-11-05T11:24:24.624Z,7.42
2022-11-05T11:25:34.980Z,7.41
2022-11-05T11:26:39.974Z,7.39
2022-11-05T11:27:42.917Z,7.35
2022-11-05T11:28:49.135Z,7.31
2022-11-05T11:29:59.401Z,7.29
2022-11-05T11:31:14.769Z,7.26
2022-11-05T11:32:20.037Z,7.25
2022-11-05T11:33:26.963Z,7.25
2022-11-05T11:34:38.821Z,7.26
2022-11-05T11:35:47.441Z,7.28
2022-11-05T11:41:55.995Z,7.28
2022-11-05T11:43:02.416Z,7.20
2022-11-05T11:44:14.690Z,7.17
2022-11-05T11:45:30.277Z,7.13
2022-11-05T11:46:34.771Z,7.11
2022-11-05T11:47:41.359Z,7.09
2022-11-05T11:48:47.090Z,7.10
2022-11-05T11:49:59.143Z,7.10
2022-11-05T11:51:17.682Z,7.11
2022-11-05T11:52:30.424Z,7.10
2022-11-05T11:53:35.076Z,7.11
2022-11-05T11:54:38.286Z,7.08
2022-11-05T11:55:43.213Z,7.06
2022-11-05T11:56:47.974Z,7.05
2022-11-05T11:57:54.050Z,7.06
2022-11-05T11:58:59.861Z,7.05
2022-11-05T12:00:08.715Z,7.04
2022-11-05T12:01:28.372Z,7.04
2022-11-05T12:07:16.946Z,7.00
2022-11-05T12:08:50.692Z,6.97
2022-11-05T12:10:13.691Z,6.97
2022-11-05T12:11:28.900Z,6.96
2022-11-05T12:12:51.897Z,6.96
2022-11-05T12:14:01.794Z,6.96
2022-11-05T12:15:26.583Z,6.95
2022-11-05T12:16:49.156Z,6.95
2022-11-05T12:18:04.874Z,6.94
2022-11-05T12:19:41.746Z,6.91
2022-11-05T12:21:00.182Z,6.88
2022-11-05T12:22:24.614Z,6.87
2022-11-05T12:23:39.859Z,6.85
2022-11-05T12:24:57.881Z,6.82
2022-11-05T12:26:16.176Z,6.80
2022-11-05T12:27:25.800Z,6.79
2022-11-05T12:28:36.231Z,6.76
2022-11-05T12:29:51.891Z,6.74
2022-11-05T12:31:04.067Z,6.73
2022-11-05T12:32:30.483Z,6.70
2022-11-05T12:33:48.658Z,6.67
2022-11-05T12:35:01.681Z,6.65
2022-11-05T12:36:21.616Z,6.65
2022-11-05T12:37:43.702Z,6.67
2022-11-05T12:39:06.607Z,6.71
2022-11-05T12:40:28.501Z,6.75
2022-11-05T12:41:59.342Z,6.77
2022-11-05T12:43:11.749Z,6.80
2022-11-05T12:44:32.334Z,6.82
2022-11-05T12:45:47.802Z,6.83
2022-11-05T12:47:03.505Z,6.85
2022-11-05T12:48:23.298Z,6.83
2022-11-05T12:49:59.649Z,6.83
2022-11-05T12:51:06.226Z,6.80
2022-11-05T12:52:21.905Z,6.75
2022-11-05T12:53:34.322Z,6.72
2022-11-05T12:54:52.719Z,6.70
2022-11-05T12:55:59.321Z,6.70
2022-11-05T12:57:03.892Z,6.70
2022-11-05T12:58:13.093Z,6.69
2022-11-05T12:59:34.592Z,6.69
2022-11-05T13:00:41.123Z,6.69
2022-11-05T13:01:47.900Z,6.71
2022-11-05T13:02:54.442Z,6.71
2022-11-05T13:04:01.009Z,6.72
2022-11-05T13:05:38.053Z,6.73
2022-11-05T13:06:44.782Z,6.74
2022-11-05T13:08:00.518Z,6.73
2022-11-05T13:09:16.947Z,6.70
2022-11-05T13:10:38.339Z,6.70
2022-11-05T13:11:56.817Z,6.66
2022-11-05T13:13:06.485Z,6.64
2022-11-05T13:14:15.807Z,6.63
2022-11-05T13:15:28.239Z,6.61
2022-11-05T13:16:37.388Z,6.58
2022-11-05T13:17:56.256Z,6.55
2022-11-05T13:19:14.859Z,6.52
2022-11-05T13:20:21.444Z,6.52
2022-11-05T13:21:28.139Z,6.49
2022-11-05T13:22:46.209Z,6.48
2022-11-05T13:24:01.933Z,6.47
2022-11-05T13:25:11.447Z,6.48
2022-11-05T13:26:21.628Z,6.50
2022-11-05T13:27:56.985Z,6.51
2022-11-05T13:29:15.345Z,6.51
2022-11-05T13:30:21.886Z,6.51
2022-11-05T13:31:31.465Z,6.51
2022-11-05T13:32:37.967Z,6.52
2022-11-05T13:33:46.775Z,6.54
2022-11-05T13:34:51.957Z,6.54
2022-11-05T13:36:16.658Z,6.56
2022-11-05T13:37:30.555Z,6.59
2022-11-05T13:40:01.077Z,6.75
2022-11-05T13:41:31.497Z,6.63
2022-11-05T13:42:49.933Z,6.60
2022-11-05T13:44:02.370Z,6.55
2022-11-05T13:45:21.084Z,6.53
2022-11-05T13:46:33.688Z,6.52
2022-11-05T13:48:01.553Z,6.52
2022-11-05T13:49:18.322Z,6.49
2022-11-05T13:50:37.078Z,6.48
2022-11-05T13:51:51.992Z,6.46
2022-11-05T13:53:15.111Z,6.45
2022-11-05T13:54:40.855Z,6.45
2022-11-05T13:55:58.998Z,6.44
2022-11-05T13:57:14.649Z,6.36
2022-11-05T13:58:45.060Z,6.36
2022-11-05T14:00:14.443Z,6.35
2022-11-05T14:01:36.035Z,6.34
2022-11-05T14:02:42.595Z,6.31
2022-11-05T14:03:49.192Z,6.30
2022-11-05T14:05:01.418Z,6.29
2022-11-05T14:06:06.174Z,6.27
2022-11-05T14:07:19.076Z,6.25
2022-11-05T14:08:25.597Z,6.20
2022-11-05T14:09:28.461Z,6.20
2022-11-05T14:10:40.305Z,6.20
2022-11-05T14:11:46.750Z,6.18
2022-11-05T14:12:52.831Z,6.17
2022-11-05T14:14:05.092Z,6.14
2022-11-05T14:15:17.665Z,6.14
2022-11-05T14:16:23.052Z,6.14
2022-11-05T14:17:32.601Z,6.16
2022-11-05T14:18:39.245Z,6.16
2022-11-05T14:20:05.311Z,6.17
2022-11-05T14:21:32.325Z,6.18
2022-11-05T14:22:41.209Z,6.19
2022-11-05T14:23:49.762Z,6.18
2022-11-05T14:24:52.901Z,6.16
2022-11-05T14:26:18.663Z,6.16
2022-11-05T17:02:12.596Z,4.89
2022-11-05T17:03:15.991Z,4.88
2022-11-05T17:04:19.022Z,4.93
2022-11-05T17:05:28.227Z,4.99
2022-11-05T17:06:31.521Z,5.04
2022-11-05T17:07:38.568Z,5.09
2022-11-05T17:08:39.780Z,5.14
2022-11-05T17:09:42.889Z,5.20
2022-11-05T17:10:45.999Z,5.24
2022-11-05T17:11:48.884Z,5.28
2022-11-05T17:12:52.156Z,5.31
2022-11-05T17:13:56.242Z,5.34
2022-11-05T17:14:59.442Z,5.39
2022-11-05T17:16:02.769Z,5.44
2022-11-05T17:17:05.956Z,5.49
2022-11-05T17:18:16.946Z,5.53
2022-11-05T17:19:15.926Z,5.56
2022-11-05T17:20:39.865Z,5.58
2022-11-05T17:21:39.612Z,5.61
2022-11-05T17:22:42.588Z,5.63
2022-11-05T17:23:45.666Z,5.65
2022-11-05T17:24:48.705Z,5.68
2022-11-05T17:25:54.525Z,5.70
2022-11-05T17:26:57.623Z,5.72
2022-11-05T17:28:01.342Z,5.74
2022-11-05T17:29:04.553Z,5.76
2022-11-05T17:30:09.115Z,5.77
2022-11-05T17:31:17.265Z,5.79
2022-11-05T17:32:20.502Z,5.83
2022-11-05T17:33:23.845Z,5.84
2022-11-05T17:34:27.041Z,5.84
2022-11-05T17:35:30.224Z,5.85
2022-11-05T17:36:33.299Z,5.87
2022-11-05T17:37:36.256Z,5.89
2022-11-05T17:38:39.405Z,5.91
2022-11-05T17:39:42.438Z,5.92
2022-11-05T17:40:45.556Z,5.95
2022-11-05T17:41:48.723Z,5.95
2022-11-05T17:42:52.228Z,5.96
2022-11-05T17:43:56.921Z,5.97
2022-11-05T17:45:00.226Z,5.98
2022-11-05T17:46:09.042Z,5.99
2022-11-05T17:47:13.156Z,6.01
2022-11-05T17:48:18.050Z,6.01
2022-11-05T17:49:21.570Z,6.03
2022-11-05T17:50:25.140Z,6.03
2022-11-05T17:51:28.220Z,6.02
2022-11-05T17:52:33.017Z,6.01
2022-11-05T17:53:36.892Z,6.01
2022-11-05T17:54:39.996Z,6.02
2022-11-05T17:55:44.924Z,6.03
2022-11-05T17:56:48.671Z,6.04
2022-11-05T17:57:54.398Z,6.05
2022-11-05T17:58:59.939Z,6.05
2022-11-05T18:00:04.964Z,6.06
2022-11-05T18:01:28.674Z,6.06
2022-11-05T18:02:33.538Z,6.03
2022-11-05T18:03:36.939Z,6.00
2022-11-05T18:04:40.117Z,5.99
2022-11-05T18:05:43.536Z,5.98
2022-11-05T18:06:46.891Z,5.97
2022-11-05T18:07:50.541Z,5.97
2022-11-05T18:08:53.668Z,5.97
2022-11-05T18:09:57.048Z,5.98
2022-11-05T18:11:00.126Z,5.99
2022-11-05T18:12:04.567Z,6.00
2022-11-05T18:13:07.705Z,6.02
2022-11-05T18:14:11.065Z,6.04
2022-11-05T18:15:14.578Z,6.04
2022-11-05T18:16:17.513Z,6.04
2022-11-05T18:17:20.666Z,6.02
2022-11-05T18:18:23.754Z,6.01
2022-11-05T18:19:27.525Z,6.00
2022-11-05T18:20:31.014Z,6.00
2022-11-05T18:21:34.176Z,6.01
2022-11-05T18:22:39.162Z,6.03
2022-11-05T18:23:42.673Z,6.04
2022-11-05T18:24:48.537Z,6.06
2022-11-05T18:25:51.771Z,6.07
2022-11-05T18:26:55.817Z,6.08
2022-11-05T18:27:59.087Z,6.08
2022-11-05T18:29:03.956Z,6.07
2022-11-05T18:30:10.220Z,6.08
2022-11-05T18:31:18.395Z,6.10
2022-11-05T18:32:21.357Z,6.11
2022-11-05T18:33:24.561Z,6.12
2022-11-05T18:34:27.423Z,6.14
2022-11-05T18:35:30.662Z,6.16
2022-11-05T18:36:33.898Z,6.16
2022-11-05T18:37:38.545Z,6.17
2022-11-05T18:38:41.661Z,6.17
2022-11-05T18:39:44.959Z,6.17
2022-11-05T18:40:48.052Z,6.18
2022-11-05T18:41:51.163Z,6.20
2022-11-05T18:42:54.440Z,6.20
2022-11-05T18:44:02.480Z,6.21
2022-11-05T18:45:06.646Z,6.22
2022-11-05T18:46:23.778Z,6.23
2022-11-05T18:47:16.088Z,6.24
2022-11-05T18:48:19.189Z,6.23
2022-11-05T18:49:22.303Z,6.26
2022-11-05T18:50:26.183Z,6.26
2022-11-05T18:51:29.288Z,6.26
2022-11-05T18:52:32.510Z,6.27
2022-11-05T18:53:35.569Z,6.27
2022-11-05T18:54:38.690Z,6.27
2022-11-05T18:55:41.788Z,6.27
2022-11-05T18:56:45.736Z,6.29
2022-11-05T18:57:49.091Z,6.30
2022-11-05T18:59:14.780Z,6.31
2022-11-05T18:59:58.115Z,6.32
2022-11-05T19:01:06.345Z,6.33
2022-11-05T19:02:07.551Z,6.34
2022-11-05T19:03:10.602Z,6.34
2022-11-05T19:04:14.434Z,6.35
2022-11-05T19:05:32.944Z,6.35
2022-11-05T19:06:24.440Z,6.35
2022-11-05T19:07:27.421Z,6.34
2022-11-05T19:08:32.023Z,6.36
2022-11-05T19:09:36.360Z,6.36
2022-11-05T19:10:40.786Z,6.35
2022-11-05T19:11:43.705Z,6.35
2022-11-05T19:12:47.117Z,6.36
2022-11-05T19:13:50.180Z,6.36
2022-11-05T19:14:56.692Z,6.38
2022-11-05T19:15:58.020Z,6.38
2022-11-05T19:17:01.676Z,6.38
2022-11-05T19:18:04.687Z,6.37
2022-11-05T19:19:07.678Z,6.37
2022-11-05T19:20:12.671Z,6.36
2022-11-05T19:21:19.048Z,6.36
2022-11-05T19:22:21.961Z,6.37
2022-11-05T19:23:24.844Z,6.36
2022-11-05T19:24:28.108Z,6.38
2022-11-05T19:25:31.405Z,6.36
2022-11-05T19:26:34.403Z,6.36
2022-11-05T19:27:38.287Z,6.35
2022-11-05T19:28:42.527Z,6.35
2022-11-05T19:29:46.824Z,6.35
2022-11-05T19:30:50.285Z,6.35
2022-11-05T19:31:53.168Z,6.35
2022-11-05T19:32:56.733Z,6.36
2022-11-05T19:34:04.866Z,6.36
2022-11-05T19:35:08.566Z,6.36
2022-11-05T19:36:14.817Z,6.35
2022-11-05T19:37:18.655Z,6.36
2022-11-05T19:38:22.141Z,6.37
2022-11-05T19:39:25.452Z,6.37
2022-11-05T19:40:28.409Z,6.37
2022-11-05T19:41:31.319Z,6.36
2022-11-05T19:42:34.180Z,6.35
2022-11-05T19:43:38.584Z,6.36
2022-11-05T19:44:42.565Z,6.35
2022-11-05T19:45:45.661Z,6.35
2022-11-05T19:46:48.627Z,6.35
2022-11-05T19:47:52.026Z,6.35
2022-11-05T19:48:55.200Z,6.34
2022-11-05T19:49:58.025Z,6.34
2022-11-05T19:51:12.101Z,6.33
2022-11-05T19:52:15.118Z,6.33
2022-11-05T19:53:18.206Z,6.31
2022-11-05T19:54:21.856Z,6.29
2022-11-05T19:55:26.155Z,6.28
2022-11-05T19:56:31.623Z,6.29
2022-11-05T19:57:38.366Z,6.29
2022-11-05T19:58:44.305Z,6.30
2022-11-05T19:59:47.493Z,6.30
2022-11-05T20:00:50.592Z,6.29
2022-11-05T20:01:54.189Z,6.28
2022-11-05T20:02:58.131Z,6.28
2022-11-05T20:04:01.912Z,6.27
2022-11-05T20:05:05.532Z,6.27
2022-11-05T20:06:11.632Z,6.26
2022-11-05T20:07:14.739Z,6.25
2022-11-05T20:08:17.728Z,6.25
2022-11-05T20:09:22.970Z,6.25
2022-11-05T20:10:26.082Z,6.25
2022-11-05T20:11:29.399Z,6.24
2022-11-05T20:12:32.451Z,6.25
2022-11-05T20:13:35.841Z,6.24
2022-11-05T20:14:38.730Z,6.25
2022-11-05T20:15:41.797Z,6.24
2022-11-05T20:16:45.900Z,6.25
2022-11-05T20:19:01.865Z,6.35
2022-11-05T20:20:06.608Z,6.24
2022-11-05T20:21:11.071Z,6.23
2022-11-05T20:22:13.987Z,6.22
2022-11-05T20:23:17.220Z,6.21
2022-11-05T20:24:25.257Z,6.20
2022-11-05T20:25:27.118Z,6.18
2022-11-05T20:26:30.409Z,6.17
2022-11-05T20:27:33.303Z,6.18
2022-11-05T20:28:37.591Z,6.18
2022-11-05T20:29:40.599Z,6.17
2022-11-05T20:30:43.597Z,6.16
2022-11-05T20:31:46.766Z,6.15
2022-11-05T20:32:54.782Z,6.16
2022-11-05T20:33:57.908Z,6.16
2022-11-05T20:35:00.771Z,6.15
2022-11-05T20:36:06.372Z,6.16
2022-11-05T20:37:09.358Z,6.17
2022-11-05T20:38:12.934Z,6.16
2022-11-05T20:39:17.178Z,6.14
2022-11-05T20:40:20.245Z,6.14
2022-11-05T20:41:24.222Z,6.14
2022-11-05T20:42:27.323Z,6.14
2022-11-05T20:43:31.167Z,6.13
2022-11-05T20:44:34.365Z,6.12
2022-11-05T20:45:37.865Z,6.13
2022-11-05T20:46:41.045Z,6.12
2022-11-05T20:47:44.204Z,6.12
2022-11-05T20:48:47.755Z,6.12
2022-11-05T20:49:51.316Z,6.12
2022-11-05T20:50:54.433Z,6.12
2022-11-05T20:51:57.347Z,6.12
2022-11-05T20:53:00.688Z,6.10
2022-11-05T20:54:03.734Z,6.09
2022-11-05T20:55:08.781Z,6.08
2022-11-05T20:56:21.103Z,6.09
2022-11-05T20:57:24.234Z,6.08
2022-11-05T20:58:27.615Z,6.07
2022-11-05T20:59:30.703Z,6.05
2022-11-05T21:00:33.851Z,6.05
2022-11-05T21:01:37.016Z,6.04
2022-11-05T21:02:41.288Z,6.04
2022-11-05T21:03:46.343Z,6.04
2022-11-05T21:04:49.421Z,6.01
2022-11-05T21:05:56.529Z,6.00
2022-11-05T21:06:59.507Z,6.00
2022-11-05T21:08:02.697Z,5.98
2022-11-05T21:09:06.188Z,5.99
2022-11-05T21:10:09.600Z,5.98
2022-11-05T21:11:12.548Z,5.96
2022-11-05T21:12:15.728Z,5.93
2022-11-05T21:13:18.958Z,5.91
2022-11-05T21:14:22.100Z,5.90
2022-11-05T21:15:25.111Z,5.89
2022-11-05T21:16:28.379Z,5.88
2022-11-05T21:17:31.330Z,5.85
2022-11-05T21:18:37.370Z,5.86
2022-11-05T21:19:40.751Z,5.86
2022-11-05T21:20:44.315Z,5.88
2022-11-05T21:21:47.253Z,5.88
2022-11-05T21:22:50.242Z,5.87
2022-11-05T21:23:53.100Z,5.88
2022-11-05T21:24:59.128Z,5.89
2022-11-05T21:26:06.843Z,5.88
2022-11-05T21:27:10.462Z,5.88
2022-11-05T21:28:15.750Z,5.88
2022-11-05T21:29:19.005Z,5.88
2022-11-05T21:30:22.294Z,5.89
2022-11-05T21:31:25.187Z,5.89
2022-11-05T21:32:28.040Z,5.89
2022-11-05T21:33:32.778Z,5.90
2022-11-05T21:34:35.749Z,5.89
2022-11-05T21:35:43.293Z,5.91
2022-11-05T21:36:46.704Z,5.92
2022-11-05T21:37:50.829Z,5.92
2022-11-05T21:38:53.985Z,5.91
2022-11-05T21:39:57.399Z,5.92
2022-11-05T21:41:03.263Z,5.93
2022-11-05T21:42:06.854Z,5.94
2022-11-05T21:43:09.795Z,5.95
2022-11-05T21:44:12.660Z,5.95
2022-11-05T21:45:15.726Z,5.94
2022-11-05T21:46:19.852Z,5.94
2022-11-05T21:47:22.848Z,5.94
2022-11-05T21:48:25.942Z,5.94
2022-11-05T21:49:29.016Z,5.95
2022-11-05T21:50:50.138Z,5.96
2022-11-05T21:52:11.475Z,5.93
2022-11-05T21:53:34.042Z,5.90